sensor_id;sensor_type;location;lat;lon;timestamp;P1;durP1;ratioP1;P2;durP2;ratioP2
60704;SDS011;46545;38.014;-7.874;2023-02-28T00:01:45;26.75;;;9.63;;
60704;SDS011;46545;38.014;-7.874;2023-02-28T00:03:45;22.77;;;9.55;;
60704;SDS011;46545;38.014;-7.874;2023-02-28T00:05:46;16.92;;;8.57;;
60704;SDS011;46545;38.014;-7.874;2023-02-28T00:07:46;17.23;;;9.88;;
60704;SDS011;46545;38.014;-7.874;2023-02-28T00:09:47;25.67;;;10.18;;
60704;SDS011;46545;38.014;-7.874;2023-02-28T00:11:47;14.85;;;9.13;;
60704;SDS011;46545;38.014;-7.874;2023-02-28T00:13:48;26.45;;;10.30;;
60704;SDS011;46545;38.014;-7.874;2023-02-28T00:15:57;24.20;;;9.85;;
60704;SDS011;46545;38.014;-7.874;2023-02-28T00:17:58;21.50;;;9.70;;
60704;SDS011;46545;38.014;-7.874;2023-02-28T00:19:59;18.58;;;9.65;;
60704;SDS011;46545;38.014;-7.874;2023-02-28T00:22:02;20.55;;;9.80;;
60704;SDS011;46545;38.014;-7.874;2023-02-28T00:24:02;22.38;;;9.43;;
60704;SDS011;46545;38.014;-7.874;2023-02-28T00:26:03;17.60;;;9.38;;
60704;SDS011;46545;38.014;-7.874;2023-02-28T00:28:03;19.17;;;8.15;;
60704;SDS011;46545;38.014;-7.874;2023-02-28T00:30:08;17.92;;;7.85;;
60704;SDS011;46545;38.014;-7.874;2023-02-28T00:34:11;15.05;;;7.30;;
60704;SDS011;46545;38.014;-7.874;2023-02-28T00:36:12;18.55;;;7.43;;
60704;SDS011;46545;38.014;-7.874;2023-02-28T00:38:13;16.38;;;8.90;;
60704;SDS011;46545;38.014;-7.874;2023-02-28T00:40:13;15.30;;;7.72;;
60704;SDS011;46545;38.014;-7.874;2023-02-28T00:42:14;13.07;;;6.95;;
60704;SDS011;46545;38.014;-7.874;2023-02-28T00:44:14;13.80;;;6.88;;
60704;SDS011;46545;38.014;-7.874;2023-02-28T00:46:15;16.02;;;7.80;;
60704;SDS011;46545;38.014;-7.874;2023-02-28T00:48:15;16.05;;;8.02;;
60704;SDS011;46545;38.014;-7.874;2023-02-28T00:50:17;20.98;;;8.18;;
60704;SDS011;46545;38.014;-7.874;2023-02-28T00:52:17;16.38;;;8.88;;
60704;SDS011;46545;38.014;-7.874;2023-02-28T00:54:18;16.42;;;7.97;;
60704;SDS011;46545;38.014;-7.874;2023-02-28T00:56:21;22.45;;;8.52;;
60704;SDS011;46545;38.014;-7.874;2023-02-28T00:58:21;21.92;;;7.90;;
60704;SDS011;46545;38.014;-7.874;2023-02-28T01:00:22;18.52;;;8.85;;
60704;SDS011;46545;38.014;-7.874;2023-02-28T01:02:24;16.08;;;7.90;;
60704;SDS011;46545;38.014;-7.874;2023-02-28T01:04:26;15.00;;;6.70;;
60704;SDS011;46545;38.014;-7.874;2023-02-28T01:06:27;12.57;;;6.32;;
60704;SDS011;46545;38.014;-7.874;2023-02-28T01:08:27;11.75;;;5.80;;
60704;SDS011;46545;38.014;-7.874;2023-02-28T01:10:28;24.13;;;7.57;;
60704;SDS011;46545;38.014;-7.874;2023-02-28T01:12:31;18.67;;;6.25;;
60704;SDS011;46545;38.014;-7.874;2023-02-28T01:14:31;12.40;;;6.50;;
60704;SDS011;46545;38.014;-7.874;2023-02-28T01:16:32;15.05;;;6.85;;
60704;SDS011;46545;38.014;-7.874;2023-02-28T01:18:32;21.70;;;6.32;;
60704;SDS011;46545;38.014;-7.874;2023-02-28T01:20:33;12.60;;;6.75;;
60704;SDS011;46545;38.014;-7.874;2023-02-28T01:22:36;12.10;;;6.18;;
60704;SDS011;46545;38.014;-7.874;2023-02-28T01:24:37;12.45;;;7.55;;
60704;SDS011;46545;38.014;-7.874;2023-02-28T01:26:38;14.18;;;7.20;;
60704;SDS011;46545;38.014;-7.874;2023-02-28T01:28:41;15.68;;;6.47;;
60704;SDS011;46545;38.014;-7.874;2023-02-28T01:30:41;21.70;;;6.47;;
60704;SDS011;46545;38.014;-7.874;2023-02-28T01:32:42;10.75;;;6.05;;
60704;SDS011;46545;38.014;-7.874;2023-02-28T01:34:42;14.95;;;6.50;;
60704;SDS011;46545;38.014;-7.874;2023-02-28T01:36:43;11.73;;;5.70;;
60704;SDS011;46545;38.014;-7.874;2023-02-28T01:38:44;11.27;;;5.97;;
60704;SDS011;46545;38.014;-7.874;2023-02-28T01:40:45;11.40;;;6.25;;
60704;SDS011;46545;38.014;-7.874;2023-02-28T01:42:46;12.68;;;6.00;;
60704;SDS011;46545;38.014;-7.874;2023-02-28T01:45:03;12.52;;;5.35;;
60704;SDS011;46545;38.014;-7.874;2023-02-28T01:47:04;8.18;;;5.18;;
60704;SDS011;46545;38.014;-7.874;2023-02-28T01:49:07;12.52;;;6.10;;
60704;SDS011;46545;38.014;-7.874;2023-02-28T01:51:10;14.27;;;5.32;;
60704;SDS011;46545;38.014;-7.874;2023-02-28T01:53:13;22.05;;;5.88;;
60704;SDS011;46545;38.014;-7.874;2023-02-28T01:55:15;16.40;;;5.83;;
60704;SDS011;46545;38.014;-7.874;2023-02-28T01:57:17;9.18;;;4.80;;
60704;SDS011;46545;38.014;-7.874;2023-02-28T01:59:21;15.63;;;6.25;;
60704;SDS011;46545;38.014;-7.874;2023-02-28T02:01:23;17.33;;;5.85;;
60704;SDS011;46545;38.014;-7.874;2023-02-28T02:03:24;16.48;;;5.15;;
60704;SDS011;46545;38.014;-7.874;2023-02-28T02:05:25;13.52;;;5.65;;
60704;SDS011;46545;38.014;-7.874;2023-02-28T02:07:26;13.85;;;6.35;;
60704;SDS011;46545;38.014;-7.874;2023-02-28T02:09:27;11.23;;;5.57;;
60704;SDS011;46545;38.014;-7.874;2023-02-28T02:11:27;14.80;;;6.38;;
60704;SDS011;46545;38.014;-7.874;2023-02-28T02:17:51;12.75;;;6.25;;
60704;SDS011;46545;38.014;-7.874;2023-02-28T02:22:12;13.68;;;5.07;;
60704;SDS011;46545;38.014;-7.874;2023-02-28T02:35:37;9.90;;;3.97;;
60704;SDS011;46545;38.014;-7.874;2023-02-28T02:37:50;7.15;;;3.88;;
60704;SDS011;46545;38.014;-7.874;2023-02-28T02:39:53;8.98;;;3.55;;
60704;SDS011;46545;38.014;-7.874;2023-02-28T02:41:59;9.70;;;4.93;;
60704;SDS011;46545;38.014;-7.874;2023-02-28T02:46:06;10.30;;;4.30;;
60704;SDS011;46545;38.014;-7.874;2023-02-28T02:48:10;8.93;;;4.97;;
60704;SDS011;46545;38.014;-7.874;2023-02-28T02:50:14;9.10;;;4.10;;
60704;SDS011;46545;38.014;-7.874;2023-02-28T02:52:17;10.93;;;4.57;;
60704;SDS011;46545;38.014;-7.874;2023-02-28T02:54:22;8.88;;;4.18;;
60704;SDS011;46545;38.014;-7.874;2023-02-28T02:56:24;12.13;;;4.80;;
60704;SDS011;46545;38.014;-7.874;2023-02-28T02:58:27;13.38;;;5.30;;
60704;SDS011;46545;38.014;-7.874;2023-02-28T03:00:47;7.70;;;4.28;;
60704;SDS011;46545;38.014;-7.874;2023-02-28T03:02:49;12.38;;;5.03;;
60704;SDS011;46545;38.014;-7.874;2023-02-28T03:04:52;8.98;;;4.78;;
60704;SDS011;46545;38.014;-7.874;2023-02-28T03:06:55;8.23;;;4.18;;
60704;SDS011;46545;38.014;-7.874;2023-02-28T03:08:55;5.70;;;3.75;;
60704;SDS011;46545;38.014;-7.874;2023-02-28T03:10:57;7.00;;;3.70;;
60704;SDS011;46545;38.014;-7.874;2023-02-28T03:13:06;8.07;;;4.72;;
60704;SDS011;46545;38.014;-7.874;2023-02-28T03:15:16;7.85;;;4.00;;
60704;SDS011;46545;38.014;-7.874;2023-02-28T03:17:33;11.48;;;3.92;;
60704;SDS011;46545;38.014;-7.874;2023-02-28T03:24:08;5.10;;;2.55;;
60704;SDS011;46545;38.014;-7.874;2023-02-28T03:26:18;12.27;;;4.00;;
60704;SDS011;46545;38.014;-7.874;2023-02-28T03:28:24;6.10;;;2.55;;
60704;SDS011;46545;38.014;-7.874;2023-02-28T03:32:42;7.05;;;3.05;;
60704;SDS011;46545;38.014;-7.874;2023-02-28T03:35:09;6.88;;;3.08;;
60704;SDS011;46545;38.014;-7.874;2023-02-28T03:37:11;6.15;;;3.40;;
60704;SDS011;46545;38.014;-7.874;2023-02-28T03:39:23;7.15;;;2.97;;
60704;SDS011;46545;38.014;-7.874;2023-02-28T03:41:44;8.32;;;3.50;;
60704;SDS011;46545;38.014;-7.874;2023-02-28T03:43:49;9.00;;;5.47;;
60704;SDS011;46545;38.014;-7.874;2023-02-28T03:45:51;8.23;;;4.07;;
60704;SDS011;46545;38.014;-7.874;2023-02-28T03:47:53;3.85;;;3.30;;
60704;SDS011;46545;38.014;-7.874;2023-02-28T03:49:59;4.80;;;3.00;;
60704;SDS011;46545;38.014;-7.874;2023-02-28T03:52:02;8.77;;;3.88;;
60704;SDS011;46545;38.014;-7.874;2023-02-28T03:54:05;8.15;;;2.78;;
60704;SDS011;46545;38.014;-7.874;2023-02-28T03:56:16;7.30;;;4.38;;
60704;SDS011;46545;38.014;-7.874;2023-02-28T03:58:20;9.65;;;3.35;;
60704;SDS011;46545;38.014;-7.874;2023-02-28T04:00:35;5.72;;;2.28;;
60704;SDS011;46545;38.014;-7.874;2023-02-28T04:02:38;3.65;;;2.42;;
60704;SDS011;46545;38.014;-7.874;2023-02-28T04:04:39;6.45;;;2.55;;
60704;SDS011;46545;38.014;-7.874;2023-02-28T04:06:45;6.47;;;3.15;;
60704;SDS011;46545;38.014;-7.874;2023-02-28T04:08:45;6.28;;;2.38;;
60704;SDS011;46545;38.014;-7.874;2023-02-28T04:10:48;6.57;;;2.70;;
60704;SDS011;46545;38.014;-7.874;2023-02-28T04:12:51;7.07;;;2.08;;
60704;SDS011;46545;38.014;-7.874;2023-02-28T04:14:51;8.52;;;2.58;;
60704;SDS011;46545;38.014;-7.874;2023-02-28T04:16:51;1.67;;;1.38;;
60704;SDS011;46545;38.014;-7.874;2023-02-28T04:18:52;3.53;;;1.95;;
60704;SDS011;46545;38.014;-7.874;2023-02-28T04:20:52;3.08;;;1.73;;
60704;SDS011;46545;38.014;-7.874;2023-02-28T04:22:53;3.65;;;1.77;;
60704;SDS011;46545;38.014;-7.874;2023-02-28T04:24:53;5.32;;;1.48;;
60704;SDS011;46545;38.014;-7.874;2023-02-28T04:26:55;5.05;;;1.95;;
60704;SDS011;46545;38.014;-7.874;2023-02-28T04:28:56;4.80;;;1.63;;
60704;SDS011;46545;38.014;-7.874;2023-02-28T04:30:57;3.25;;;1.13;;
60704;SDS011;46545;38.014;-7.874;2023-02-28T04:32:58;2.65;;;1.50;;
60704;SDS011;46545;38.014;-7.874;2023-02-28T04:34:59;3.60;;;1.30;;
60704;SDS011;46545;38.014;-7.874;2023-02-28T04:37:00;4.40;;;1.30;;
60704;SDS011;46545;38.014;-7.874;2023-02-28T04:39:00;2.28;;;1.58;;
60704;SDS011;46545;38.014;-7.874;2023-02-28T04:41:01;3.15;;;1.60;;
60704;SDS011;46545;38.014;-7.874;2023-02-28T04:43:01;2.83;;;1.20;;
60704;SDS011;46545;38.014;-7.874;2023-02-28T04:45:03;8.40;;;2.00;;
60704;SDS011;46545;38.014;-7.874;2023-02-28T04:47:04;4.30;;;1.35;;
60704;SDS011;46545;38.014;-7.874;2023-02-28T04:49:04;5.35;;;1.73;;
60704;SDS011;46545;38.014;-7.874;2023-02-28T04:51:12;2.45;;;1.35;;
60704;SDS011;46545;38.014;-7.874;2023-02-28T04:53:12;5.30;;;1.48;;
60704;SDS011;46545;38.014;-7.874;2023-02-28T04:55:13;4.07;;;1.63;;
60704;SDS011;46545;38.014;-7.874;2023-02-28T04:57:13;2.80;;;1.65;;
60704;SDS011;46545;38.014;-7.874;2023-02-28T04:59:14;2.15;;;1.30;;
60704;SDS011;46545;38.014;-7.874;2023-02-28T05:03:18;2.50;;;1.30;;
60704;SDS011;46545;38.014;-7.874;2023-02-28T05:05:19;3.15;;;1.50;;
60704;SDS011;46545;38.014;-7.874;2023-02-28T05:07:19;3.33;;;1.55;;
60704;SDS011;46545;38.014;-7.874;2023-02-28T05:09:19;2.90;;;1.13;;
60704;SDS011;46545;38.014;-7.874;2023-02-28T05:11:21;1.92;;;1.35;;
60704;SDS011;46545;38.014;-7.874;2023-02-28T05:13:22;1.30;;;1.17;;
60704;SDS011;46545;38.014;-7.874;2023-02-28T05:15:23;5.70;;;1.80;;
60704;SDS011;46545;38.014;-7.874;2023-02-28T05:17:23;4.45;;;1.20;;
60704;SDS011;46545;38.014;-7.874;2023-02-28T05:19:24;1.63;;;1.27;;
60704;SDS011;46545;38.014;-7.874;2023-02-28T05:23:30;5.50;;;1.23;;
60704;SDS011;46545;38.014;-7.874;2023-02-28T05:25:31;3.13;;;1.10;;
60704;SDS011;46545;38.014;-7.874;2023-02-28T05:27:31;5.63;;;1.33;;
60704;SDS011;46545;38.014;-7.874;2023-02-28T05:29:32;3.05;;;1.13;;
60704;SDS011;46545;38.014;-7.874;2023-02-28T05:31:33;3.15;;;1.20;;
60704;SDS011;46545;38.014;-7.874;2023-02-28T05:33:33;3.55;;;1.13;;
60704;SDS011;46545;38.014;-7.874;2023-02-28T05:35:34;1.52;;;1.20;;
60704;SDS011;46545;38.014;-7.874;2023-02-28T05:37:38;3.88;;;1.35;;
60704;SDS011;46545;38.014;-7.874;2023-02-28T05:39:38;3.22;;;1.33;;
60704;SDS011;46545;38.014;-7.874;2023-02-28T05:41:42;2.95;;;1.35;;
60704;SDS011;46545;38.014;-7.874;2023-02-28T05:43:43;2.08;;;1.52;;
60704;SDS011;46545;38.014;-7.874;2023-02-28T05:45:43;2.20;;;1.35;;
60704;SDS011;46545;38.014;-7.874;2023-02-28T05:47:44;3.33;;;1.70;;
60704;SDS011;46545;38.014;-7.874;2023-02-28T05:49:44;3.15;;;2.08;;
60704;SDS011;46545;38.014;-7.874;2023-02-28T05:51:45;7.35;;;1.30;;
60704;SDS011;46545;38.014;-7.874;2023-02-28T05:53:45;4.15;;;1.70;;
60704;SDS011;46545;38.014;-7.874;2023-02-28T05:55:46;5.25;;;1.73;;
60704;SDS011;46545;38.014;-7.874;2023-02-28T05:57:46;1.90;;;1.00;;
60704;SDS011;46545;38.014;-7.874;2023-02-28T05:59:46;2.63;;;1.33;;
60704;SDS011;46545;38.014;-7.874;2023-02-28T06:01:47;2.67;;;1.20;;
60704;SDS011;46545;38.014;-7.874;2023-02-28T06:03:50;2.53;;;1.70;;
60704;SDS011;46545;38.014;-7.874;2023-02-28T06:05:51;1.40;;;1.27;;
60704;SDS011;46545;38.014;-7.874;2023-02-28T06:07:51;2.88;;;1.52;;
60704;SDS011;46545;38.014;-7.874;2023-02-28T06:09:51;5.60;;;2.15;;
60704;SDS011;46545;38.014;-7.874;2023-02-28T06:11:52;4.03;;;1.80;;
60704;SDS011;46545;38.014;-7.874;2023-02-28T06:13:53;3.80;;;1.30;;
60704;SDS011;46545;38.014;-7.874;2023-02-28T06:15:54;6.20;;;2.85;;
60704;SDS011;46545;38.014;-7.874;2023-02-28T06:17:55;4.35;;;1.88;;
60704;SDS011;46545;38.014;-7.874;2023-02-28T06:19:56;3.75;;;1.27;;
60704;SDS011;46545;38.014;-7.874;2023-02-28T06:21:57;4.05;;;1.70;;
60704;SDS011;46545;38.014;-7.874;2023-02-28T06:23:57;5.57;;;1.75;;
60704;SDS011;46545;38.014;-7.874;2023-02-28T06:25:59;3.75;;;1.70;;
60704;SDS011;46545;38.014;-7.874;2023-02-28T06:28:00;3.30;;;1.48;;
60704;SDS011;46545;38.014;-7.874;2023-02-28T06:30:00;2.55;;;1.52;;
60704;SDS011;46545;38.014;-7.874;2023-02-28T06:32:01;3.45;;;1.63;;
60704;SDS011;46545;38.014;-7.874;2023-02-28T06:34:02;1.92;;;1.42;;
60704;SDS011;46545;38.014;-7.874;2023-02-28T06:36:02;4.85;;;1.40;;
60704;SDS011;46545;38.014;-7.874;2023-02-28T06:38:03;1.33;;;1.13;;
60704;SDS011;46545;38.014;-7.874;2023-02-28T06:40:04;1.83;;;1.27;;
60704;SDS011;46545;38.014;-7.874;2023-02-28T06:42:06;9.48;;;3.40;;
60704;SDS011;46545;38.014;-7.874;2023-02-28T06:44:16;5.50;;;1.08;;
60704;SDS011;46545;38.014;-7.874;2023-02-28T06:46:17;1.80;;;1.15;;
60704;SDS011;46545;38.014;-7.874;2023-02-28T06:48:18;4.53;;;1.80;;
60704;SDS011;46545;38.014;-7.874;2023-02-28T06:50:19;3.50;;;1.90;;
60704;SDS011;46545;38.014;-7.874;2023-02-28T06:52:20;2.30;;;1.60;;
60704;SDS011;46545;38.014;-7.874;2023-02-28T06:54:22;1.50;;;1.08;;
60704;SDS011;46545;38.014;-7.874;2023-02-28T06:56:22;3.78;;;1.60;;
60704;SDS011;46545;38.014;-7.874;2023-02-28T06:58:22;2.63;;;1.42;;
60704;SDS011;46545;38.014;-7.874;2023-02-28T07:00:23;4.22;;;1.20;;
60704;SDS011;46545;38.014;-7.874;2023-02-28T07:02:25;2.45;;;1.35;;
60704;SDS011;46545;38.014;-7.874;2023-02-28T07:04:26;3.72;;;1.40;;
60704;SDS011;46545;38.014;-7.874;2023-02-28T07:06:26;2.45;;;1.13;;
60704;SDS011;46545;38.014;-7.874;2023-02-28T07:08:27;8.10;;;1.48;;
60704;SDS011;46545;38.014;-7.874;2023-02-28T07:10:27;3.78;;;1.70;;
60704;SDS011;46545;38.014;-7.874;2023-02-28T07:12:28;3.17;;;1.55;;
60704;SDS011;46545;38.014;-7.874;2023-02-28T07:14:28;2.75;;;1.38;;
60704;SDS011;46545;38.014;-7.874;2023-02-28T07:16:29;7.35;;;1.48;;
60704;SDS011;46545;38.014;-7.874;2023-02-28T07:18:29;5.40;;;1.92;;
60704;SDS011;46545;38.014;-7.874;2023-02-28T07:20:30;1.60;;;1.30;;
60704;SDS011;46545;38.014;-7.874;2023-02-28T07:22:30;3.50;;;1.33;;
60704;SDS011;46545;38.014;-7.874;2023-02-28T07:24:31;1.40;;;1.05;;
60704;SDS011;46545;38.014;-7.874;2023-02-28T07:26:31;3.22;;;1.80;;
60704;SDS011;46545;38.014;-7.874;2023-02-28T07:28:34;7.72;;;1.42;;
60704;SDS011;46545;38.014;-7.874;2023-02-28T07:30:34;4.07;;;1.52;;
60704;SDS011;46545;38.014;-7.874;2023-02-28T07:32:35;8.15;;;1.77;;
60704;SDS011;46545;38.014;-7.874;2023-02-28T07:34:38;4.40;;;1.75;;
60704;SDS011;46545;38.014;-7.874;2023-02-28T07:36:38;2.63;;;1.65;;
60704;SDS011;46545;38.014;-7.874;2023-02-28T07:38:38;1.05;;;0.95;;
60704;SDS011;46545;38.014;-7.874;2023-02-28T07:40:39;4.72;;;2.05;;
60704;SDS011;46545;38.014;-7.874;2023-02-28T07:42:40;4.75;;;1.95;;
60704;SDS011;46545;38.014;-7.874;2023-02-28T07:44:42;3.28;;;2.35;;
60704;SDS011;46545;38.014;-7.874;2023-02-28T07:46:42;5.80;;;1.50;;
60704;SDS011;46545;38.014;-7.874;2023-02-28T07:48:43;5.65;;;1.50;;
60704;SDS011;46545;38.014;-7.874;2023-02-28T07:50:44;3.78;;;1.95;;
60704;SDS011;46545;38.014;-7.874;2023-02-28T07:52:44;4.75;;;1.88;;
60704;SDS011;46545;38.014;-7.874;2023-02-28T07:54:45;3.03;;;1.48;;
60704;SDS011;46545;38.014;-7.874;2023-02-28T07:56:45;3.13;;;1.40;;
60704;SDS011;46545;38.014;-7.874;2023-02-28T07:58:45;4.15;;;1.40;;
60704;SDS011;46545;38.014;-7.874;2023-02-28T08:00:46;7.70;;;1.67;;
60704;SDS011;46545;38.014;-7.874;2023-02-28T08:02:46;1.48;;;0.93;;
60704;SDS011;46545;38.014;-7.874;2023-02-28T08:04:47;4.65;;;1.77;;
60704;SDS011;46545;38.014;-7.874;2023-02-28T08:06:48;5.25;;;1.88;;
60704;SDS011;46545;38.014;-7.874;2023-02-28T08:08:52;11.55;;;2.33;;
60704;SDS011;46545;38.014;-7.874;2023-02-28T08:10:53;2.35;;;1.58;;
60704;SDS011;46545;38.014;-7.874;2023-02-28T08:12:53;2.78;;;1.45;;
60704;SDS011;46545;38.014;-7.874;2023-02-28T08:14:53;7.32;;;1.45;;
60704;SDS011;46545;38.014;-7.874;2023-02-28T08:16:54;6.07;;;1.48;;
60704;SDS011;46545;38.014;-7.874;2023-02-28T08:18:54;2.15;;;1.20;;
60704;SDS011;46545;38.014;-7.874;2023-02-28T08:20:55;4.72;;;1.65;;
60704;SDS011;46545;38.014;-7.874;2023-02-28T08:22:56;3.83;;;1.90;;
60704;SDS011;46545;38.014;-7.874;2023-02-28T08:24:57;1.42;;;1.00;;
60704;SDS011;46545;38.014;-7.874;2023-02-28T08:26:57;10.95;;;1.17;;
60704;SDS011;46545;38.014;-7.874;2023-02-28T08:28:58;14.70;;;1.92;;
60704;SDS011;46545;38.014;-7.874;2023-02-28T08:30:58;6.40;;;1.40;;
60704;SDS011;46545;38.014;-7.874;2023-02-28T08:32:59;4.88;;;1.77;;
60704;SDS011;46545;38.014;-7.874;2023-02-28T08:34:59;8.23;;;1.33;;
60704;SDS011;46545;38.014;-7.874;2023-02-28T08:37:01;3.45;;;1.60;;
60704;SDS011;46545;38.014;-7.874;2023-02-28T08:39:02;3.42;;;1.98;;
60704;SDS011;46545;38.014;-7.874;2023-02-28T08:41:06;1.85;;;1.40;;
60704;SDS011;46545;38.014;-7.874;2023-02-28T08:43:07;13.90;;;1.45;;
60704;SDS011;46545;38.014;-7.874;2023-02-28T08:45:07;1.38;;;1.25;;
60704;SDS011;46545;38.014;-7.874;2023-02-28T08:47:08;5.88;;;1.92;;
60704;SDS011;46545;38.014;-7.874;2023-02-28T08:49:09;9.85;;;2.15;;
60704;SDS011;46545;38.014;-7.874;2023-02-28T08:51:11;4.15;;;1.63;;
60704;SDS011;46545;38.014;-7.874;2023-02-28T08:53:12;5.47;;;2.13;;
60704;SDS011;46545;38.014;-7.874;2023-02-28T08:55:13;4.28;;;1.75;;
60704;SDS011;46545;38.014;-7.874;2023-02-28T08:57:13;2.15;;;1.88;;
60704;SDS011;46545;38.014;-7.874;2023-02-28T08:59:13;4.00;;;1.88;;
60704;SDS011;46545;38.014;-7.874;2023-02-28T09:01:19;3.20;;;1.52;;
60704;SDS011;46545;38.014;-7.874;2023-02-28T09:03:20;2.75;;;1.83;;
60704;SDS011;46545;38.014;-7.874;2023-02-28T09:05:20;2.83;;;2.03;;
60704;SDS011;46545;38.014;-7.874;2023-02-28T09:07:21;4.32;;;2.30;;
60704;SDS011;46545;38.014;-7.874;2023-02-28T09:09:21;10.32;;;2.17;;
60704;SDS011;46545;38.014;-7.874;2023-02-28T09:11:22;2.85;;;1.80;;
60704;SDS011;46545;38.014;-7.874;2023-02-28T09:13:22;6.20;;;2.20;;
60704;SDS011;46545;38.014;-7.874;2023-02-28T09:15:22;2.38;;;1.60;;
60704;SDS011;46545;38.014;-7.874;2023-02-28T09:17:23;3.22;;;1.73;;
60704;SDS011;46545;38.014;-7.874;2023-02-28T09:19:23;11.77;;;1.75;;
60704;SDS011;46545;38.014;-7.874;2023-02-28T09:21:24;2.47;;;1.50;;
60704;SDS011;46545;38.014;-7.874;2023-02-28T09:23:24;4.28;;;1.48;;
60704;SDS011;46545;38.014;-7.874;2023-02-28T09:25:25;6.60;;;1.88;;
60704;SDS011;46545;38.014;-7.874;2023-02-28T09:27:25;2.45;;;1.83;;
60704;SDS011;46545;38.014;-7.874;2023-02-28T09:29:26;6.95;;;1.95;;
60704;SDS011;46545;38.014;-7.874;2023-02-28T09:31:27;2.53;;;1.48;;
60704;SDS011;46545;38.014;-7.874;2023-02-28T09:33:28;6.05;;;1.70;;
60704;SDS011;46545;38.014;-7.874;2023-02-28T09:35:28;18.75;;;1.50;;
60704;SDS011;46545;38.014;-7.874;2023-02-28T09:37:30;7.25;;;1.10;;
60704;SDS011;46545;38.014;-7.874;2023-02-28T09:39:31;0.90;;;0.70;;
60704;SDS011;46545;38.014;-7.874;2023-02-28T09:41:36;2.25;;;1.30;;
60704;SDS011;46545;38.014;-7.874;2023-02-28T09:43:37;8.63;;;1.10;;
60704;SDS011;46545;38.014;-7.874;2023-02-28T09:45:39;3.25;;;1.00;;
60704;SDS011;46545;38.014;-7.874;2023-02-28T09:47:41;3.90;;;1.58;;
60704;SDS011;46545;38.014;-7.874;2023-02-28T09:49:44;2.92;;;0.73;;
60704;SDS011;46545;38.014;-7.874;2023-02-28T09:53:46;2.38;;;1.20;;
60704;SDS011;46545;38.014;-7.874;2023-02-28T09:55:51;3.10;;;1.33;;
60704;SDS011;46545;38.014;-7.874;2023-02-28T09:57:52;4.63;;;1.25;;
60704;SDS011;46545;38.014;-7.874;2023-02-28T10:04:43;1.58;;;0.93;;
60704;SDS011;46545;38.014;-7.874;2023-02-28T10:06:51;2.33;;;1.10;;
60704;SDS011;46545;38.014;-7.874;2023-02-28T10:09:13;3.97;;;1.45;;
60704;SDS011;46545;38.014;-7.874;2023-02-28T10:11:15;2.92;;;1.10;;
60704;SDS011;46545;38.014;-7.874;2023-02-28T10:15:27;1.05;;;0.73;;
60704;SDS011;46545;38.014;-7.874;2023-02-28T10:17:34;2.75;;;0.90;;
60704;SDS011;46545;38.014;-7.874;2023-02-28T10:21:59;1.48;;;0.82;;
60704;SDS011;46545;38.014;-7.874;2023-02-28T10:24:04;7.13;;;1.27;;
60704;SDS011;46545;38.014;-7.874;2023-02-28T10:26:09;3.03;;;1.40;;
60704;SDS011;46545;38.014;-7.874;2023-02-28T10:28:12;2.90;;;2.10;;
60704;SDS011;46545;38.014;-7.874;2023-02-28T10:30:13;1.45;;;0.90;;
60704;SDS011;46545;38.014;-7.874;2023-02-28T10:32:15;1.63;;;1.08;;
60704;SDS011;46545;38.014;-7.874;2023-02-28T10:34:16;3.05;;;0.90;;
60704;SDS011;46545;38.014;-7.874;2023-02-28T10:36:18;6.15;;;1.88;;
60704;SDS011;46545;38.014;-7.874;2023-02-28T10:38:26;5.10;;;1.75;;
60704;SDS011;46545;38.014;-7.874;2023-02-28T10:40:36;11.43;;;1.75;;
60704;SDS011;46545;38.014;-7.874;2023-02-28T10:42:37;2.25;;;1.13;;
60704;SDS011;46545;38.014;-7.874;2023-02-28T10:44:39;2.72;;;1.27;;
60704;SDS011;46545;38.014;-7.874;2023-02-28T10:46:39;6.43;;;1.67;;
60704;SDS011;46545;38.014;-7.874;2023-02-28T10:48:44;2.88;;;1.20;;
60704;SDS011;46545;38.014;-7.874;2023-02-28T10:52:52;5.72;;;1.25;;
60704;SDS011;46545;38.014;-7.874;2023-02-28T10:54:53;4.38;;;1.05;;
60704;SDS011;46545;38.014;-7.874;2023-02-28T10:57:20;8.40;;;1.45;;
60704;SDS011;46545;38.014;-7.874;2023-02-28T10:59:29;2.83;;;1.00;;
60704;SDS011;46545;38.014;-7.874;2023-02-28T11:03:34;5.75;;;1.38;;
60704;SDS011;46545;38.014;-7.874;2023-02-28T11:05:35;4.82;;;1.20;;
60704;SDS011;46545;38.014;-7.874;2023-02-28T11:07:36;1.85;;;1.23;;
60704;SDS011;46545;38.014;-7.874;2023-02-28T11:09:39;3.13;;;1.30;;
60704;SDS011;46545;38.014;-7.874;2023-02-28T11:11:42;1.38;;;1.17;;
60704;SDS011;46545;38.014;-7.874;2023-02-28T11:13:43;2.45;;;1.33;;
60704;SDS011;46545;38.014;-7.874;2023-02-28T11:15:49;4.57;;;1.45;;
60704;SDS011;46545;38.014;-7.874;2023-02-28T11:17:58;1.65;;;1.17;;
60704;SDS011;46545;38.014;-7.874;2023-02-28T11:20:04;4.55;;;1.45;;
60704;SDS011;46545;38.014;-7.874;2023-02-28T11:22:07;4.50;;;1.02;;
60704;SDS011;46545;38.014;-7.874;2023-02-28T11:24:18;8.05;;;1.30;;
60704;SDS011;46545;38.014;-7.874;2023-02-28T11:26:42;1.27;;;0.93;;
60704;SDS011;46545;38.014;-7.874;2023-02-28T11:28:43;2.75;;;1.05;;
60704;SDS011;46545;38.014;-7.874;2023-02-28T11:30:43;2.05;;;1.92;;
60704;SDS011;46545;38.014;-7.874;2023-02-28T11:32:48;2.97;;;1.15;;
60704;SDS011;46545;38.014;-7.874;2023-02-28T11:35:14;2.25;;;1.15;;
60704;SDS011;46545;38.014;-7.874;2023-02-28T11:37:16;4.95;;;1.45;;
60704;SDS011;46545;38.014;-7.874;2023-02-28T11:39:18;5.65;;;1.85;;
60704;SDS011;46545;38.014;-7.874;2023-02-28T11:41:34;4.43;;;1.83;;
60704;SDS011;46545;38.014;-7.874;2023-02-28T11:52:02;4.32;;;1.60;;
60704;SDS011;46545;38.014;-7.874;2023-02-28T11:56:38;1.45;;;1.10;;
60704;SDS011;46545;38.014;-7.874;2023-02-28T12:00:47;1.70;;;0.95;;
60704;SDS011;46545;38.014;-7.874;2023-02-28T12:02:58;4.68;;;1.30;;
60704;SDS011;46545;38.014;-7.874;2023-02-28T12:18:02;4.57;;;0.90;;
60704;SDS011;46545;38.014;-7.874;2023-02-28T12:22:22;0.98;;;0.68;;
60704;SDS011;46545;38.014;-7.874;2023-02-28T12:24:30;1.40;;;1.13;;
60704;SDS011;46545;38.014;-7.874;2023-02-28T12:26:36;8.73;;;1.23;;
60704;SDS011;46545;38.014;-7.874;2023-02-28T12:28:38;1.52;;;0.75;;
60704;SDS011;46545;38.014;-7.874;2023-02-28T12:30:42;1.98;;;0.88;;
60704;SDS011;46545;38.014;-7.874;2023-02-28T12:32:48;2.75;;;0.60;;
60704;SDS011;46545;38.014;-7.874;2023-02-28T12:34:57;2.95;;;1.08;;
60704;SDS011;46545;38.014;-7.874;2023-02-28T12:37:02;2.15;;;1.00;;
60704;SDS011;46545;38.014;-7.874;2023-02-28T12:39:16;4.05;;;1.30;;
60704;SDS011;46545;38.014;-7.874;2023-02-28T12:41:19;1.85;;;0.85;;
60704;SDS011;46545;38.014;-7.874;2023-02-28T12:43:24;1.48;;;0.63;;
60704;SDS011;46545;38.014;-7.874;2023-02-28T12:45:33;4.22;;;1.35;;
60704;SDS011;46545;38.014;-7.874;2023-02-28T12:47:35;5.18;;;1.38;;
60704;SDS011;46545;38.014;-7.874;2023-02-28T12:49:42;3.50;;;1.30;;
60704;SDS011;46545;38.014;-7.874;2023-02-28T12:51:46;5.13;;;1.95;;
60704;SDS011;46545;38.014;-7.874;2023-02-28T12:57:49;4.53;;;0.90;;
60704;SDS011;46545;38.014;-7.874;2023-02-28T12:59:57;1.17;;;0.80;;
60704;SDS011;46545;38.014;-7.874;2023-02-28T13:06:32;2.47;;;0.77;;
60704;SDS011;46545;38.014;-7.874;2023-02-28T13:10:49;3.13;;;1.13;;
60704;SDS011;46545;38.014;-7.874;2023-02-28T13:12:54;3.75;;;1.15;;
60704;SDS011;46545;38.014;-7.874;2023-02-28T13:19:15;5.93;;;1.13;;
60704;SDS011;46545;38.014;-7.874;2023-02-28T13:22:02;3.28;;;1.40;;
60704;SDS011;46545;38.014;-7.874;2023-02-28T13:25:50;1.92;;;1.13;;
60704;SDS011;46545;38.014;-7.874;2023-02-28T13:27:52;3.05;;;1.33;;
60704;SDS011;46545;38.014;-7.874;2023-02-28T13:29:56;2.47;;;1.20;;
60704;SDS011;46545;38.014;-7.874;2023-02-28T13:34:12;3.03;;;1.02;;
60704;SDS011;46545;38.014;-7.874;2023-02-28T13:38:22;4.95;;;1.02;;
60704;SDS011;46545;38.014;-7.874;2023-02-28T13:40:26;2.13;;;1.00;;
60704;SDS011;46545;38.014;-7.874;2023-02-28T13:44:30;3.83;;;0.95;;
60704;SDS011;46545;38.014;-7.874;2023-02-28T13:48:51;4.10;;;1.15;;